createdAt,value
2022-12-25T00:14:27.235Z,3.104
2022-12-25T00:30:09.967Z,3.104
2022-12-25T00:45:52.885Z,3.104
2022-12-25T01:01:36.081Z,3.102
2022-12-25T01:17:18.924Z,3.102
2022-12-25T01:33:01.326Z,3.102
2022-12-25T01:48:43.882Z,3.101
2022-12-25T02:04:27.119Z,3.101
2022-12-25T02:20:10.164Z,3.1
2022-12-25T02:35:52.722Z,3.1
2022-12-25T02:51:35.054Z,3.1
2022-12-25T03:07:17.858Z,3.097
2022-12-25T03:23:00.588Z,3.097
2022-12-25T03:38:43.807Z,3.097
2022-12-25T03:54:26.288Z,3.095
2022-12-25T04:10:08.936Z,3.094
2022-12-25T04:25:51.499Z,3.098
2022-12-25T04:41:34.655Z,3.094
2022-12-25T04:57:17.566Z,3.093
2022-12-25T05:13:00.268Z,3.091
2022-12-25T05:28:43.284Z,3.093
2022-12-25T05:44:26.357Z,3.093
2022-12-25T06:00:09.106Z,3.091
2022-12-25T06:15:52.288Z,3.091
2022-12-25T06:31:35.081Z,3.091
2022-12-25T06:47:17.416Z,3.091
2022-12-25T07:03:00.114Z,3.091
2022-12-25T07:18:42.545Z,3.09
2022-12-25T07:34:25.038Z,3.09
2022-12-25T07:50:08.233Z,3.093
2022-12-25T08:05:51.235Z,3.104
2022-12-25T08:21:34.226Z,3.127
2022-12-25T08:37:16.641Z,3.137
2022-12-25T08:52:59.279Z,3.148
2022-12-25T09:08:41.859Z,3.153
2022-12-25T09:24:24.565Z,3.156
2022-12-25T09:40:07.152Z,3.16
2022-12-25T09:55:50.013Z,3.163
2022-12-25T10:11:32.621Z,3.167
2022-12-25T10:27:14.996Z,3.166
2022-12-25T10:42:57.692Z,3.167
2022-12-25T10:58:40.408Z,3.169
2022-12-25T10:59:27.796Z,3.166
2022-12-25T11:15:10.740Z,3.17
2022-12-25T11:30:53.487Z,3.171
2022-12-25T11:46:36.382Z,3.169
2022-12-25T12:02:18.695Z,3.17
2022-12-25T12:18:01.323Z,3.17
2022-12-25T12:33:43.668Z,3.176
2022-12-25T12:49:26.111Z,3.17
2022-12-25T13:05:08.464Z,3.17
2022-12-25T13:20:51.559Z,3.174
2022-12-25T13:36:34.368Z,3.171
2022-12-25T13:52:17.038Z,3.166
2022-12-25T14:07:59.407Z,3.166
2022-12-25T14:23:42.704Z,3.164
2022-12-25T14:39:25.591Z,3.164
2022-12-25T14:55:08.320Z,3.164
2022-12-25T15:10:50.953Z,3.163
2022-12-25T15:26:33.938Z,3.164
2022-12-25T15:42:16.337Z,3.163
2022-12-25T15:57:58.878Z,3.163
2022-12-25T16:13:41.195Z,3.162
2022-12-25T16:29:24.035Z,3.162
2022-12-25T16:45:06.927Z,3.162
2022-12-25T17:00:50.067Z,3.162
2022-12-25T17:16:33.250Z,3.162
2022-12-25T17:32:16.066Z,3.162
2022-12-25T17:47:59.217Z,3.16
2022-12-25T18:03:41.945Z,3.16
2022-12-25T18:19:24.298Z,3.159
2022-12-25T18:35:06.772Z,3.159
2022-12-25T18:50:49.074Z,3.158
2022-12-25T19:06:31.949Z,3.158
2022-12-25T19:22:14.621Z,3.158
2022-12-25T19:37:57.782Z,3.158
2022-12-25T19:53:40.748Z,3.158
2022-12-25T20:09:23.320Z,3.156
2022-12-25T20:25:06.246Z,3.156
2022-12-25T20:40:49.412Z,3.156
2022-12-25T20:56:32.183Z,3.155
2022-12-25T21:12:14.813Z,3.155
2022-12-25T21:27:57.040Z,3.155
2022-12-25T21:43:39.651Z,3.155
2022-12-25T21:59:22.173Z,3.153
2022-12-25T22:15:04.480Z,3.153
2022-12-25T22:30:47.446Z,3.153
2022-12-25T22:46:29.960Z,3.152
2022-12-25T23:02:12.278Z,3.152
2022-12-25T23:17:55.173Z,3.152
2022-12-25T23:33:38.228Z,3.151
2022-12-25T23:49:20.768Z,3.151
